createdAt,value
2023-01-11T00:02:26.342Z,5.30
2023-01-11T00:04:52.869Z,3.80
2023-01-11T00:07:19.279Z,4.10
2023-01-11T00:09:47.790Z,3.77
2023-01-11T00:12:15.024Z,6.27
2023-01-11T00:14:41.423Z,4.87
2023-01-11T00:17:07.886Z,5.30
2023-01-11T00:19:34.270Z,5.13
2023-01-11T00:22:00.824Z,3.20
2023-01-11T00:24:27.211Z,7.27
2023-01-11T00:26:53.615Z,5.30
2023-01-11T00:29:20.047Z,4.57
2023-01-11T00:31:46.464Z,3.00
2023-01-11T00:34:12.891Z,5.23
2023-01-11T00:36:39.344Z,5.70
2023-01-11T00:39:05.870Z,3.73
2023-01-11T00:41:50.963Z,4.33
2023-01-11T00:44:35.894Z,2.93
2023-01-11T00:47:21.210Z,2.60
2023-01-11T00:49:47.708Z,5.83
2023-01-11T00:52:14.291Z,6.30
2023-01-11T00:54:41.544Z,4.67
2023-01-11T00:57:08.384Z,5.07
2023-01-11T00:59:35.686Z,4.70
2023-01-11T01:02:02.728Z,3.80
2023-01-11T01:04:29.172Z,4.73
2023-01-11T01:06:55.601Z,5.07
2023-01-11T01:09:22.256Z,7.00
2023-01-11T01:11:48.816Z,4.27
2023-01-11T01:14:28.816Z,5.90
2023-01-11T01:16:56.730Z,5.20
2023-01-11T01:19:23.746Z,6.10
2023-01-11T01:21:50.996Z,6.17
2023-01-11T01:24:17.527Z,8.07
2023-01-11T01:26:44.061Z,6.47
2023-01-11T01:29:11.716Z,5.57
2023-01-11T01:31:38.404Z,4.60
2023-01-11T01:34:06.479Z,6.67
2023-01-11T01:36:33.424Z,5.53
2023-01-11T01:39:00.911Z,5.00
2023-01-11T01:41:28.004Z,4.70
2023-01-11T01:43:58.738Z,3.63
2023-01-11T01:46:31.429Z,3.20
2023-01-11T01:49:13.587Z,4.77
2023-01-11T01:51:42.880Z,5.00
2023-01-11T01:54:12.833Z,6.60
2023-01-11T01:56:44.173Z,5.50
2023-01-11T01:59:13.028Z,5.43
2023-01-11T02:01:49.774Z,8.70
2023-01-11T02:04:26.153Z,5.87
2023-01-11T02:07:39.227Z,6.67
2023-01-11T02:10:12.099Z,4.47
2023-01-11T02:12:51.938Z,6.17
2023-01-11T02:15:20.329Z,5.03
2023-01-11T02:17:47.010Z,5.37
2023-01-11T02:20:31.228Z,5.97
2023-01-11T02:23:22.465Z,5.27
2023-01-11T02:26:16.857Z,8.07
2023-01-11T02:28:56.416Z,5.47
2023-01-11T02:31:43.774Z,4.77
2023-01-11T02:34:32.596Z,7.57
2023-01-11T02:37:28.258Z,5.10
2023-01-11T02:40:22.343Z,4.93
2023-01-11T02:43:10.801Z,8.30
2023-01-11T02:45:50.844Z,6.37
2023-01-11T02:48:23.232Z,4.63
2023-01-11T02:50:56.082Z,3.83
2023-01-11T02:53:54.316Z,4.83
2023-01-11T02:56:23.552Z,4.00
2023-01-11T02:58:51.395Z,4.07
2023-01-11T03:01:19.768Z,5.63
2023-01-11T03:03:46.261Z,4.33
2023-01-11T03:06:20.636Z,3.40
2023-01-11T03:08:59.794Z,6.57
2023-01-11T03:11:57.269Z,4.57
2023-01-11T03:14:32.809Z,2.83
2023-01-11T03:17:15.258Z,3.47
2023-01-11T03:19:52.058Z,3.10
2023-01-11T03:22:22.557Z,3.47
2023-01-11T03:25:01.294Z,4.07
2023-01-11T03:27:39.313Z,6.17
2023-01-11T03:30:09.099Z,3.37
2023-01-11T03:32:47.346Z,4.20
2023-01-11T03:35:30.526Z,4.90
2023-01-11T03:38:23.188Z,5.13
2023-01-11T03:40:56.143Z,4.10
2023-01-11T03:43:24.209Z,4.87
2023-01-11T03:46:04.920Z,7.33
2023-01-11T03:48:36.615Z,4.17
2023-01-11T03:51:05.062Z,6.10
2023-01-11T03:53:34.455Z,4.83
2023-01-11T03:56:01.692Z,3.87
2023-01-11T03:58:28.490Z,4.03
2023-01-11T04:00:59.342Z,4.43
2023-01-11T04:03:27.210Z,6.53
2023-01-11T04:05:58.001Z,3.80
2023-01-11T04:08:24.503Z,3.87
2023-01-11T04:10:51.036Z,5.70
2023-01-11T04:13:17.513Z,5.93
2023-01-11T04:15:43.886Z,8.10
2023-01-11T04:18:10.360Z,3.80
2023-01-11T04:20:39.038Z,6.00
2023-01-11T04:23:06.509Z,7.77
2023-01-11T04:25:33.311Z,4.00
2023-01-11T04:28:00.110Z,3.40
2023-01-11T04:30:27.021Z,4.87
2023-01-11T04:32:53.677Z,4.07
2023-01-11T04:35:20.069Z,4.40
2023-01-11T04:37:46.880Z,4.90
2023-01-11T04:40:13.998Z,4.57
2023-01-11T04:42:40.387Z,4.03
2023-01-11T04:45:07.340Z,3.80
2023-01-11T04:47:33.974Z,4.90
2023-01-11T04:50:00.642Z,4.77
2023-01-11T04:52:27.113Z,3.30
2023-01-11T04:54:54.114Z,4.10
2023-01-11T04:57:22.175Z,3.43
2023-01-11T04:59:48.873Z,3.33
2023-01-11T05:02:15.988Z,2.90
2023-01-11T05:04:42.773Z,5.07
2023-01-11T05:07:09.905Z,3.73
2023-01-11T05:09:36.895Z,3.77
2023-01-11T05:12:03.370Z,2.93
2023-01-11T05:14:29.788Z,4.50
2023-01-11T05:16:56.492Z,2.80
2023-01-11T05:19:23.497Z,2.87
2023-01-11T05:21:50.324Z,3.80
2023-01-11T05:24:17.437Z,3.40
2023-01-11T05:26:46.411Z,3.73
2023-01-11T05:29:16.309Z,2.83
2023-01-11T05:31:43.005Z,2.97
2023-01-11T05:34:12.084Z,2.97
2023-01-11T05:36:39.471Z,4.07
2023-01-11T05:39:06.125Z,3.50
2023-01-11T05:41:32.773Z,4.13
2023-01-11T05:44:18.021Z,4.93
2023-01-11T05:46:45.237Z,3.33
2023-01-11T05:49:12.786Z,3.50
2023-01-11T05:51:39.277Z,3.57
2023-01-11T05:54:07.880Z,3.60
2023-01-11T05:56:34.723Z,4.13
2023-01-11T05:59:01.554Z,3.80
2023-01-11T06:01:28.020Z,4.40
2023-01-11T06:03:55.056Z,4.60
2023-01-11T06:06:22.096Z,4.70
2023-01-11T06:08:49.261Z,5.00
2023-01-11T06:11:16.107Z,5.07
2023-01-11T06:13:42.990Z,4.40
2023-01-11T06:16:12.079Z,4.70
2023-01-11T06:18:40.435Z,5.00
2023-01-11T06:21:08.227Z,5.17
2023-01-11T06:23:37.683Z,5.60
2023-01-11T06:26:06.061Z,5.10
2023-01-11T06:28:32.549Z,5.20
2023-01-11T06:31:00.033Z,5.87
2023-01-11T06:33:28.528Z,5.90
2023-01-11T06:35:55.599Z,6.17
2023-01-11T06:38:24.019Z,4.83
2023-01-11T06:40:56.053Z,5.43
2023-01-11T06:43:23.956Z,4.77
2023-01-11T06:45:51.733Z,5.50
2023-01-11T06:48:18.827Z,5.90
2023-01-11T06:50:53.314Z,6.10
2023-01-11T06:53:20.352Z,6.13
2023-01-11T06:55:51.231Z,6.03
2023-01-11T06:58:17.643Z,5.90
2023-01-11T07:00:44.349Z,6.00
2023-01-11T07:03:12.307Z,6.50
2023-01-11T07:05:39.679Z,6.50
2023-01-11T07:08:06.647Z,7.03
2023-01-11T07:10:33.277Z,8.67
2023-01-11T07:13:00.324Z,7.07
2023-01-11T07:15:26.798Z,6.93
2023-01-11T07:17:54.766Z,7.07
2023-01-11T07:20:22.006Z,7.80
2023-01-11T07:22:48.555Z,7.60
2023-01-11T07:25:15.205Z,8.93
2023-01-11T07:27:41.982Z,7.47
2023-01-11T07:30:09.989Z,9.37
2023-01-11T07:32:36.666Z,9.70
2023-01-11T07:35:03.624Z,8.57
2023-01-11T07:37:32.870Z,9.87
2023-01-11T07:39:59.470Z,9.77
2023-01-11T07:42:44.564Z,9.40
2023-01-11T07:45:11.381Z,9.90
2023-01-11T07:47:37.826Z,9.83
2023-01-11T07:50:04.756Z,10.20
2023-01-11T07:52:31.383Z,9.57
2023-01-11T07:55:02.396Z,9.10
2023-01-11T07:57:29.939Z,9.27
2023-01-11T07:59:56.588Z,10.20
2023-01-11T08:02:23.133Z,11.57
2023-01-11T08:04:50.411Z,8.33
2023-01-11T08:07:20.003Z,5.30
2023-01-11T08:09:46.644Z,10.13
2023-01-11T08:12:31.724Z,5.70
2023-01-11T08:14:58.358Z,4.30
2023-01-11T08:17:24.862Z,2.97
2023-01-11T08:19:51.300Z,5.80
2023-01-11T08:22:18.143Z,6.07
2023-01-11T08:24:44.808Z,4.53
2023-01-11T08:27:11.342Z,4.93
2023-01-11T08:29:38.100Z,5.90
2023-01-11T08:32:04.691Z,4.27
2023-01-11T08:34:32.065Z,4.30
2023-01-11T08:37:02.049Z,5.63
2023-01-11T08:39:32.063Z,5.17
2023-01-11T08:41:59.055Z,6.67
2023-01-11T08:44:33.829Z,8.03
2023-01-11T08:47:00.944Z,3.50
2023-01-11T08:49:27.566Z,3.50
2023-01-11T08:51:54.096Z,6.27
2023-01-11T08:54:20.716Z,8.53
2023-01-11T08:56:47.140Z,10.23
2023-01-11T08:59:13.715Z,8.67
2023-01-11T09:01:40.604Z,6.70
2023-01-11T09:04:19.115Z,5.90
2023-01-11T09:06:49.780Z,5.80
2023-01-11T09:09:16.325Z,5.23
2023-01-11T09:11:54.973Z,4.33
2023-01-11T09:14:25.676Z,3.83
2023-01-11T09:16:53.180Z,5.00
2023-01-11T09:19:19.956Z,8.93
2023-01-11T09:21:46.635Z,5.57
2023-01-11T09:24:13.775Z,5.80
2023-01-11T09:26:41.566Z,4.47
2023-01-11T09:29:08.519Z,8.33
2023-01-11T09:31:35.085Z,7.03
2023-01-11T09:34:01.769Z,6.73
2023-01-11T09:36:29.034Z,6.07
2023-01-11T09:38:57.881Z,5.57
2023-01-11T09:41:50.896Z,9.27
2023-01-11T09:44:25.086Z,5.77
2023-01-11T09:47:00.635Z,6.37
2023-01-11T09:49:29.809Z,6.57
2023-01-11T09:52:09.639Z,4.80
2023-01-11T09:54:36.676Z,8.07
2023-01-11T09:57:18.617Z,5.20
2023-01-11T09:59:53.003Z,5.13
2023-01-11T10:02:41.696Z,7.77
2023-01-11T10:05:23.572Z,8.30
2023-01-11T10:18:28.162Z,6.27
2023-01-11T10:18:31.860Z,6.53
2023-01-11T10:20:45.015Z,6.23
2023-01-11T10:23:29.963Z,12.40
2023-01-11T10:25:59.171Z,9.80
2023-01-11T10:28:43.223Z,9.40
2023-01-11T10:31:43.938Z,9.27
2023-01-11T10:34:37.688Z,11.70
2023-01-11T10:37:40.224Z,10.87
2023-01-11T10:40:35.030Z,9.70
2023-01-11T10:43:04.818Z,17.77
2023-01-11T10:46:11.115Z,10.63
2023-01-11T10:48:42.860Z,11.20
2023-01-11T10:51:18.207Z,16.47
2023-01-11T10:54:33.297Z,16.00
2023-01-11T10:57:18.509Z,12.90
2023-01-11T10:59:59.937Z,11.03
2023-01-11T11:02:40.516Z,19.20
2023-01-11T11:05:19.336Z,12.70
2023-01-11T11:07:57.991Z,11.33
2023-01-11T11:10:47.275Z,18.37
2023-01-11T11:13:26.402Z,13.30
2023-01-11T11:16:13.749Z,10.90
2023-01-11T11:18:42.082Z,14.77
2023-01-11T11:21:19.429Z,15.10
2023-01-11T11:23:47.478Z,18.33
2023-01-11T11:26:13.967Z,16.37
2023-01-11T11:28:59.555Z,16.13
2023-01-11T11:31:26.058Z,9.50
2023-01-11T11:33:52.460Z,13.13
2023-01-11T11:36:19.110Z,21.30
2023-01-11T11:39:10.633Z,14.27
2023-01-11T11:41:47.376Z,17.97
2023-01-11T11:44:25.887Z,12.17
2023-01-11T11:47:07.212Z,12.80
2023-01-11T11:49:35.674Z,10.03
2023-01-11T11:52:04.096Z,12.03
2023-01-11T11:54:33.099Z,11.00
2023-01-11T11:57:15.871Z,20.97
2023-01-11T11:59:48.262Z,10.03
2023-01-11T12:02:22.646Z,12.30
2023-01-11T12:04:49.763Z,13.87
2023-01-11T12:07:21.069Z,13.63
2023-01-11T12:09:50.117Z,16.53
2023-01-11T12:12:21.275Z,14.20
2023-01-11T12:15:08.383Z,12.73
2023-01-11T12:17:35.362Z,11.27
2023-01-11T12:20:01.751Z,12.47
2023-01-11T12:22:29.266Z,17.13
2023-01-11T12:25:25.501Z,12.70
2023-01-11T12:28:17.181Z,13.60
2023-01-11T12:30:58.300Z,11.30
2023-01-11T12:33:52.731Z,13.80
2023-01-11T12:36:43.511Z,12.67
2023-01-11T12:39:21.561Z,14.83
2023-01-11T12:42:08.494Z,11.60
2023-01-11T12:44:59.687Z,15.37
2023-01-11T12:47:57.179Z,14.00
2023-01-11T12:50:28.469Z,12.87
2023-01-11T12:53:36.727Z,11.13
2023-01-11T12:56:17.386Z,12.23
2023-01-11T12:58:47.278Z,11.13
2023-01-11T13:01:37.416Z,13.70
2023-01-11T13:04:31.637Z,7.47
2023-01-11T13:07:06.194Z,8.30
2023-01-11T13:09:56.838Z,14.60
2023-01-11T13:12:30.477Z,13.83
2023-01-11T13:15:05.653Z,13.83
2023-01-11T13:17:52.872Z,15.30
2023-01-11T13:20:23.358Z,11.17
2023-01-11T13:22:54.367Z,14.13
2023-01-11T13:25:27.285Z,16.03
2023-01-11T13:27:55.732Z,11.80
2023-01-11T13:30:24.989Z,12.73
2023-01-11T13:33:06.671Z,10.23
2023-01-11T13:35:56.503Z,7.93
2023-01-11T13:38:43.277Z,11.47
2023-01-11T13:41:18.000Z,9.77
2023-01-11T13:43:56.412Z,9.90
2023-01-11T13:46:32.096Z,15.07
2023-01-11T13:49:23.730Z,11.40
2023-01-11T13:52:01.028Z,9.97
2023-01-11T13:55:08.993Z,8.70
2023-01-11T13:57:48.129Z,7.83
2023-01-11T14:00:31.048Z,10.00
2023-01-11T14:03:14.446Z,8.63
2023-01-11T14:05:52.532Z,13.50
2023-01-11T14:08:37.404Z,12.73
2023-01-11T14:11:26.806Z,17.37
2023-01-11T14:14:31.321Z,13.67
2023-01-11T14:17:12.995Z,11.30
2023-01-11T14:19:51.512Z,11.97
2023-01-11T14:22:32.899Z,14.23
2023-01-11T14:25:06.925Z,14.77
2023-01-11T14:27:45.778Z,9.90
2023-01-11T14:30:34.297Z,11.13
2023-01-11T14:33:20.816Z,8.10
2023-01-11T14:36:06.869Z,12.33
2023-01-11T14:38:54.740Z,10.00
2023-01-11T14:42:09.402Z,13.30
2023-01-11T14:44:54.567Z,13.83
2023-01-11T14:47:32.766Z,19.37
2023-01-11T14:50:11.265Z,8.27
2023-01-11T14:52:40.438Z,11.63
2023-01-11T14:55:31.242Z,11.17
2023-01-11T14:58:21.372Z,14.93
2023-01-11T15:00:47.867Z,12.40
2023-01-11T15:03:18.262Z,16.87
2023-01-11T15:06:22.667Z,13.70
2023-01-11T15:08:51.737Z,11.47
2023-01-11T15:11:34.283Z,13.20
2023-01-11T15:14:17.746Z,14.93
2023-01-11T15:17:08.500Z,9.93
2023-01-11T15:19:37.079Z,14.37
2023-01-11T15:22:04.500Z,15.27
2023-01-11T15:24:34.225Z,13.23
2023-01-11T15:27:01.843Z,8.27
2023-01-11T15:29:31.255Z,11.77
2023-01-11T15:32:16.087Z,14.73
2023-01-11T15:34:45.321Z,19.57
2023-01-11T15:37:36.419Z,10.13
2023-01-11T15:40:29.551Z,14.73
2023-01-11T15:43:21.692Z,12.50
2023-01-11T15:46:15.924Z,16.53
2023-01-11T15:48:50.751Z,12.90
2023-01-11T15:51:35.920Z,10.87
2023-01-11T15:54:44.270Z,20.83
2023-01-11T15:57:18.219Z,13.93
2023-01-11T16:00:15.605Z,19.83
2023-01-11T16:02:57.248Z,13.50
2023-01-11T16:05:37.545Z,15.20
2023-01-11T16:08:29.300Z,14.40
2023-01-11T16:10:59.820Z,12.43
2023-01-11T16:13:52.143Z,19.47
2023-01-11T16:16:28.972Z,16.03
2023-01-11T16:19:24.398Z,17.13
2023-01-11T16:21:52.920Z,14.60
2023-01-11T16:24:21.411Z,9.57
2023-01-11T16:26:56.553Z,16.60
2023-01-11T16:29:30.693Z,15.43
2023-01-11T16:32:08.185Z,16.23
2023-01-11T16:34:43.329Z,13.17
2023-01-11T16:37:37.130Z,14.07
2023-01-11T16:40:13.590Z,16.50
2023-01-11T16:42:43.486Z,14.83
2023-01-11T16:45:15.147Z,16.37
2023-01-11T16:47:41.686Z,12.57
2023-01-11T16:50:20.830Z,13.40
2023-01-11T16:52:49.501Z,15.17
2023-01-11T16:55:33.899Z,15.53
2023-01-11T16:58:08.329Z,21.80
2023-01-11T17:00:39.856Z,20.70
2023-01-11T17:03:18.347Z,19.17
2023-01-11T17:06:07.816Z,19.37
2023-01-11T17:08:46.729Z,15.57
2023-01-11T17:11:31.809Z,14.53
2023-01-11T17:14:19.461Z,7.97
2023-01-11T17:16:48.888Z,15.57
2023-01-11T17:19:18.231Z,18.17
2023-01-11T17:22:00.048Z,17.43
2023-01-11T17:24:27.365Z,15.30
2023-01-11T17:26:57.556Z,22.90
2023-01-11T17:29:34.000Z,16.43
2023-01-11T17:32:03.156Z,20.50
2023-01-11T17:34:37.051Z,18.70
2023-01-11T17:37:10.371Z,13.20
2023-01-11T17:39:44.078Z,19.60
2023-01-11T17:42:32.116Z,22.60
2023-01-11T17:45:14.212Z,18.57
2023-01-11T17:47:42.882Z,19.33
2023-01-11T17:50:30.960Z,15.80
2023-01-11T17:53:15.146Z,24.37
2023-01-11T17:56:30.839Z,16.93
2023-01-11T17:59:15.334Z,19.03
2023-01-11T18:01:49.532Z,17.53
2023-01-11T18:04:19.254Z,18.77
2023-01-11T18:06:48.298Z,20.73
2023-01-11T18:09:26.349Z,17.27
2023-01-11T18:11:53.503Z,22.00
2023-01-11T18:14:23.206Z,13.47
2023-01-11T18:17:01.590Z,14.13
2023-01-11T18:19:39.837Z,23.77
2023-01-11T18:22:37.156Z,16.77
2023-01-11T18:25:21.640Z,17.30
2023-01-11T18:27:49.619Z,18.93
2023-01-11T18:30:45.880Z,13.63
2023-01-11T18:33:22.881Z,17.17
2023-01-11T18:35:52.216Z,20.33
2023-01-11T18:38:21.305Z,20.83
2023-01-11T18:40:49.701Z,17.37
2023-01-11T18:43:18.012Z,24.57
2023-01-11T18:45:44.848Z,22.27
2023-01-11T18:48:11.666Z,25.33
2023-01-11T18:50:39.472Z,17.10
2023-01-11T18:53:05.873Z,16.77
2023-01-11T18:55:32.286Z,15.83
2023-01-11T18:57:58.757Z,20.53
2023-01-11T19:00:25.330Z,19.97
2023-01-11T19:03:30.986Z,19.50
2023-01-11T19:05:57.406Z,16.13
2023-01-11T19:08:23.859Z,20.67
2023-01-11T19:10:51.557Z,20.00
2023-01-11T19:13:19.400Z,18.00
2023-01-11T19:15:46.027Z,17.37
2023-01-11T19:18:21.706Z,19.97
2023-01-11T19:20:48.209Z,21.30
2023-01-11T19:26:53.580Z,16.07
2023-01-11T19:29:20.323Z,12.00
2023-01-11T19:31:47.265Z,16.50
2023-01-11T19:34:14.147Z,18.93
2023-01-11T19:36:40.989Z,18.17
2023-01-11T19:39:08.570Z,14.50
2023-01-11T19:41:54.300Z,22.63
2023-01-11T19:44:21.777Z,15.30
2023-01-11T19:46:50.475Z,20.87
2023-01-11T19:49:19.502Z,17.37
2023-01-11T19:51:46.217Z,13.83
2023-01-11T19:54:14.615Z,17.73
2023-01-11T19:56:42.508Z,21.60
2023-01-11T19:59:09.475Z,14.20
2023-01-11T20:01:35.963Z,12.03
2023-01-11T20:04:02.539Z,15.67
2023-01-11T20:06:29.132Z,18.17
2023-01-11T20:08:55.711Z,20.77
2023-01-11T20:11:22.415Z,15.77
2023-01-11T20:13:52.782Z,14.20
2023-01-11T20:16:21.793Z,16.30
2023-01-11T20:18:56.251Z,12.17
2023-01-11T20:21:24.245Z,12.87
2023-01-11T20:23:50.912Z,13.67
2023-01-11T20:26:17.967Z,12.37
2023-01-11T20:28:50.040Z,17.07
2023-01-11T20:31:17.238Z,20.30
2023-01-11T20:33:44.399Z,20.40
2023-01-11T20:36:16.482Z,15.57
2023-01-11T20:38:43.881Z,21.03
2023-01-11T20:41:11.881Z,15.67
2023-01-11T20:43:39.081Z,12.13
2023-01-11T20:46:06.962Z,13.40
2023-01-11T20:48:35.808Z,16.07
2023-01-11T20:51:03.467Z,16.93
2023-01-11T20:53:29.904Z,21.43
2023-01-11T20:55:56.561Z,17.13
2023-01-11T20:58:23.919Z,14.33
2023-01-11T21:00:50.416Z,14.43
2023-01-11T21:03:19.925Z,14.93
2023-01-11T21:05:46.427Z,10.57
2023-01-11T21:08:12.845Z,16.70
2023-01-11T21:10:39.316Z,26.90
2023-01-11T21:15:33.473Z,13.17
2023-01-11T21:17:59.909Z,17.20
2023-01-11T21:20:26.356Z,15.60
2023-01-11T21:22:52.972Z,16.30
2023-01-11T21:25:19.487Z,14.73
2023-01-11T21:27:45.974Z,20.10
2023-01-11T21:30:12.513Z,12.77
2023-01-11T21:32:39.131Z,13.03
2023-01-11T21:35:05.886Z,15.67
2023-01-11T21:37:32.318Z,12.10
2023-01-11T21:39:58.801Z,14.03
2023-01-11T21:42:25.360Z,12.70
2023-01-11T21:44:52.155Z,11.23
2023-01-11T21:47:19.801Z,12.10
2023-01-11T21:49:46.314Z,12.50
2023-01-11T21:52:12.874Z,16.93
2023-01-11T21:54:39.338Z,10.77
2023-01-11T21:57:05.806Z,11.83
2023-01-11T21:59:33.727Z,16.93
2023-01-11T22:02:00.129Z,13.57
2023-01-11T22:04:26.743Z,14.63
2023-01-11T22:06:54.748Z,12.93
2023-01-11T22:09:23.034Z,14.70
2023-01-11T22:11:50.964Z,10.73
2023-01-11T22:14:17.472Z,14.83
2023-01-11T22:16:44.171Z,11.03
2023-01-11T22:19:10.620Z,12.27
2023-01-11T22:21:37.806Z,11.63
2023-01-11T22:24:06.150Z,12.07
2023-01-11T22:26:35.693Z,14.80
2023-01-11T22:29:17.307Z,13.37
2023-01-11T22:31:46.766Z,9.47
2023-01-11T22:34:14.059Z,11.70
2023-01-11T22:36:41.347Z,14.30
2023-01-11T22:39:08.062Z,12.93
2023-01-11T22:41:34.552Z,11.03
2023-01-11T22:44:01.051Z,15.97
2023-01-11T22:46:27.815Z,14.27
2023-01-11T22:48:54.677Z,15.00
2023-01-11T22:51:23.602Z,12.37
2023-01-11T22:53:52.127Z,9.47
2023-01-11T22:56:20.246Z,13.97
2023-01-11T22:58:47.586Z,15.77
2023-01-11T23:01:24.621Z,12.07
2023-01-11T23:03:51.777Z,14.17
2023-01-11T23:06:20.423Z,10.97
2023-01-11T23:08:46.846Z,15.10
2023-01-11T23:11:35.960Z,5.67
2023-01-11T23:14:04.268Z,10.67
2023-01-11T23:16:31.091Z,8.80
2023-01-11T23:18:57.875Z,11.87
2023-01-11T23:21:24.558Z,8.37
2023-01-11T23:23:51.014Z,8.50
2023-01-11T23:26:18.142Z,11.20
2023-01-11T23:28:45.752Z,11.67
2023-01-11T23:31:17.839Z,14.33
2023-01-11T23:33:52.278Z,10.23
2023-01-11T23:36:20.581Z,5.03
2023-01-11T23:38:47.235Z,10.47
2023-01-11T23:41:37.787Z,9.33
2023-01-11T23:44:06.047Z,16.97
2023-01-11T23:46:51.281Z,16.17
2023-01-11T23:49:17.927Z,5.90
2023-01-11T23:51:44.437Z,9.93
2023-01-11T23:54:10.997Z,9.57
2023-01-11T23:56:37.965Z,11.13
2023-01-11T23:59:05.136Z,8.90
